sensor_id;sensor_type;location;lat;lon;timestamp;P1;durP1;ratioP1;P2;durP2;ratioP2
72621;SDS011;60665;53.506;9.582;2023-06-19T00:00:00;8.15;;;4.70;;
72621;SDS011;60665;53.506;9.582;2023-06-19T00:02:25;8.40;;;5.00;;
72621;SDS011;60665;53.506;9.582;2023-06-19T00:04:51;7.05;;;4.65;;
72621;SDS011;60665;53.506;9.582;2023-06-19T00:07:16;10.40;;;4.75;;
72621;SDS011;60665;53.506;9.582;2023-06-19T00:09:41;8.45;;;4.60;;
72621;SDS011;60665;53.506;9.582;2023-06-19T00:12:07;7.32;;;4.47;;
72621;SDS011;60665;53.506;9.582;2023-06-19T00:14:32;7.97;;;4.88;;
72621;SDS011;60665;53.506;9.582;2023-06-19T00:16:58;7.97;;;4.45;;
72621;SDS011;60665;53.506;9.582;2023-06-19T00:19:25;6.93;;;4.15;;
72621;SDS011;60665;53.506;9.582;2023-06-19T00:21:51;7.30;;;4.35;;
72621;SDS011;60665;53.506;9.582;2023-06-19T00:24:22;8.45;;;4.20;;
72621;SDS011;60665;53.506;9.582;2023-06-19T00:26:47;7.43;;;4.35;;
72621;SDS011;60665;53.506;9.582;2023-06-19T00:29:13;10.02;;;4.88;;
72621;SDS011;60665;53.506;9.582;2023-06-19T00:31:38;6.85;;;4.43;;
72621;SDS011;60665;53.506;9.582;2023-06-19T00:34:04;7.50;;;4.38;;
72621;SDS011;60665;53.506;9.582;2023-06-19T00:36:30;8.30;;;4.30;;
72621;SDS011;60665;53.506;9.582;2023-06-19T00:38:55;8.85;;;4.80;;
72621;SDS011;60665;53.506;9.582;2023-06-19T00:41:21;8.05;;;4.70;;
72621;SDS011;60665;53.506;9.582;2023-06-19T00:43:47;9.02;;;4.85;;
72621;SDS011;60665;53.506;9.582;2023-06-19T00:46:13;9.45;;;4.75;;
72621;SDS011;60665;53.506;9.582;2023-06-19T00:48:38;6.85;;;4.35;;
72621;SDS011;60665;53.506;9.582;2023-06-19T00:51:04;8.05;;;4.10;;
72621;SDS011;60665;53.506;9.582;2023-06-19T00:53:29;7.72;;;4.63;;
72621;SDS011;60665;53.506;9.582;2023-06-19T00:55:56;8.07;;;4.63;;
72621;SDS011;60665;53.506;9.582;2023-06-19T00:58:21;7.90;;;4.85;;
72621;SDS011;60665;53.506;9.582;2023-06-19T01:00:47;7.10;;;4.68;;
72621;SDS011;60665;53.506;9.582;2023-06-19T01:03:13;6.88;;;4.88;;
72621;SDS011;60665;53.506;9.582;2023-06-19T01:05:39;9.05;;;4.93;;
72621;SDS011;60665;53.506;9.582;2023-06-19T01:10:54;6.82;;;4.25;;
72621;SDS011;60665;53.506;9.582;2023-06-19T01:13:27;7.93;;;5.00;;
72621;SDS011;60665;53.506;9.582;2023-06-19T01:15:56;7.38;;;4.65;;
72621;SDS011;60665;53.506;9.582;2023-06-19T01:18:22;7.70;;;4.60;;
72621;SDS011;60665;53.506;9.582;2023-06-19T01:20:48;9.30;;;5.28;;
72621;SDS011;60665;53.506;9.582;2023-06-19T01:23:14;8.00;;;5.00;;
72621;SDS011;60665;53.506;9.582;2023-06-19T01:25:39;8.20;;;5.10;;
72621;SDS011;60665;53.506;9.582;2023-06-19T01:28:05;8.20;;;4.90;;
72621;SDS011;60665;53.506;9.582;2023-06-19T01:30:34;9.32;;;5.40;;
72621;SDS011;60665;53.506;9.582;2023-06-19T01:33:02;10.20;;;4.88;;
72621;SDS011;60665;53.506;9.582;2023-06-19T01:35:33;9.20;;;5.03;;
72621;SDS011;60665;53.506;9.582;2023-06-19T01:38:00;6.95;;;4.45;;
72621;SDS011;60665;53.506;9.582;2023-06-19T01:40:26;7.43;;;4.70;;
72621;SDS011;60665;53.506;9.582;2023-06-19T01:42:53;7.65;;;4.90;;
72621;SDS011;60665;53.506;9.582;2023-06-19T01:45:19;9.98;;;5.15;;
72621;SDS011;60665;53.506;9.582;2023-06-19T01:47:44;7.82;;;5.30;;
72621;SDS011;60665;53.506;9.582;2023-06-19T01:50:10;9.57;;;5.30;;
72621;SDS011;60665;53.506;9.582;2023-06-19T01:52:36;8.02;;;4.90;;
72621;SDS011;60665;53.506;9.582;2023-06-19T01:55:02;12.20;;;5.43;;
72621;SDS011;60665;53.506;9.582;2023-06-19T01:57:28;7.13;;;5.07;;
72621;SDS011;60665;53.506;9.582;2023-06-19T01:59:53;9.65;;;5.22;;
72621;SDS011;60665;53.506;9.582;2023-06-19T02:02:18;9.18;;;5.45;;
72621;SDS011;60665;53.506;9.582;2023-06-19T02:04:44;9.35;;;4.80;;
72621;SDS011;60665;53.506;9.582;2023-06-19T02:07:09;9.85;;;5.18;;
72621;SDS011;60665;53.506;9.582;2023-06-19T02:09:35;7.63;;;5.15;;
72621;SDS011;60665;53.506;9.582;2023-06-19T02:12:02;7.32;;;5.10;;
72621;SDS011;60665;53.506;9.582;2023-06-19T02:14:28;9.20;;;4.93;;
72621;SDS011;60665;53.506;9.582;2023-06-19T02:16:53;7.15;;;4.88;;
72621;SDS011;60665;53.506;9.582;2023-06-19T02:19:19;8.38;;;5.15;;
72621;SDS011;60665;53.506;9.582;2023-06-19T02:21:44;8.57;;;4.90;;
72621;SDS011;60665;53.506;9.582;2023-06-19T02:24:09;7.30;;;4.75;;
72621;SDS011;60665;53.506;9.582;2023-06-19T02:26:35;6.80;;;4.65;;
72621;SDS011;60665;53.506;9.582;2023-06-19T02:29:00;7.43;;;4.97;;
72621;SDS011;60665;53.506;9.582;2023-06-19T02:31:25;7.78;;;5.13;;
72621;SDS011;60665;53.506;9.582;2023-06-19T02:33:51;8.88;;;5.28;;
72621;SDS011;60665;53.506;9.582;2023-06-19T02:36:16;10.30;;;5.20;;
72621;SDS011;60665;53.506;9.582;2023-06-19T02:38:47;7.28;;;4.95;;
72621;SDS011;60665;53.506;9.582;2023-06-19T02:41:15;8.43;;;5.35;;
72621;SDS011;60665;53.506;9.582;2023-06-19T02:43:42;9.00;;;4.90;;
72621;SDS011;60665;53.506;9.582;2023-06-19T02:46:07;8.07;;;5.45;;
72621;SDS011;60665;53.506;9.582;2023-06-19T02:48:33;8.60;;;5.03;;
72621;SDS011;60665;53.506;9.582;2023-06-19T02:50:58;10.85;;;5.85;;
72621;SDS011;60665;53.506;9.582;2023-06-19T02:53:24;9.40;;;5.10;;
72621;SDS011;60665;53.506;9.582;2023-06-19T02:55:49;9.98;;;5.63;;
72621;SDS011;60665;53.506;9.582;2023-06-19T02:58:14;8.07;;;5.13;;
72621;SDS011;60665;53.506;9.582;2023-06-19T03:00:40;9.88;;;5.47;;
72621;SDS011;60665;53.506;9.582;2023-06-19T03:03:05;10.15;;;5.50;;
72621;SDS011;60665;53.506;9.582;2023-06-19T03:05:31;8.68;;;5.13;;
72621;SDS011;60665;53.506;9.582;2023-06-19T03:07:56;10.23;;;5.22;;
72621;SDS011;60665;53.506;9.582;2023-06-19T03:10:21;10.32;;;6.07;;
72621;SDS011;60665;53.506;9.582;2023-06-19T03:12:47;8.30;;;5.35;;
72621;SDS011;60665;53.506;9.582;2023-06-19T03:15:12;8.75;;;5.32;;
72621;SDS011;60665;53.506;9.582;2023-06-19T03:17:38;9.65;;;5.55;;
72621;SDS011;60665;53.506;9.582;2023-06-19T03:20:03;9.00;;;5.30;;
72621;SDS011;60665;53.506;9.582;2023-06-19T03:22:30;11.00;;;5.78;;
72621;SDS011;60665;53.506;9.582;2023-06-19T03:24:56;8.95;;;5.45;;
72621;SDS011;60665;53.506;9.582;2023-06-19T03:27:21;9.40;;;5.55;;
72621;SDS011;60665;53.506;9.582;2023-06-19T03:29:47;8.98;;;5.45;;
72621;SDS011;60665;53.506;9.582;2023-06-19T03:32:12;7.13;;;5.20;;
72621;SDS011;60665;53.506;9.582;2023-06-19T03:34:38;10.55;;;5.68;;
72621;SDS011;60665;53.506;9.582;2023-06-19T03:37:03;7.82;;;5.38;;
72621;SDS011;60665;53.506;9.582;2023-06-19T03:39:29;11.52;;;5.57;;
72621;SDS011;60665;53.506;9.582;2023-06-19T03:41:54;9.98;;;5.72;;
72621;SDS011;60665;53.506;9.582;2023-06-19T03:44:20;15.38;;;5.68;;
72621;SDS011;60665;53.506;9.582;2023-06-19T03:46:45;10.43;;;5.35;;
72621;SDS011;60665;53.506;9.582;2023-06-19T03:49:12;11.60;;;5.65;;
72621;SDS011;60665;53.506;9.582;2023-06-19T03:51:37;8.77;;;6.05;;
72621;SDS011;60665;53.506;9.582;2023-06-19T03:54:03;8.55;;;5.10;;
72621;SDS011;60665;53.506;9.582;2023-06-19T03:56:28;8.98;;;6.07;;
72621;SDS011;60665;53.506;9.582;2023-06-19T03:58:54;9.13;;;5.22;;
72621;SDS011;60665;53.506;9.582;2023-06-19T04:01:19;8.88;;;5.60;;
72621;SDS011;60665;53.506;9.582;2023-06-19T04:03:44;12.88;;;6.63;;
72621;SDS011;60665;53.506;9.582;2023-06-19T04:06:10;8.93;;;6.10;;
72621;SDS011;60665;53.506;9.582;2023-06-19T04:08:36;10.40;;;5.82;;
72621;SDS011;60665;53.506;9.582;2023-06-19T04:11:01;9.95;;;6.13;;
72621;SDS011;60665;53.506;9.582;2023-06-19T04:13:27;8.88;;;5.85;;
72621;SDS011;60665;53.506;9.582;2023-06-19T04:15:52;7.25;;;5.57;;
72621;SDS011;60665;53.506;9.582;2023-06-19T04:18:18;9.32;;;6.18;;
72621;SDS011;60665;53.506;9.582;2023-06-19T04:20:43;7.78;;;5.55;;
72621;SDS011;60665;53.506;9.582;2023-06-19T04:23:09;7.47;;;5.10;;
72621;SDS011;60665;53.506;9.582;2023-06-19T04:25:34;8.77;;;5.95;;
72621;SDS011;60665;53.506;9.582;2023-06-19T04:28:00;8.93;;;5.90;;
72621;SDS011;60665;53.506;9.582;2023-06-19T04:30:28;10.75;;;6.47;;
72621;SDS011;60665;53.506;9.582;2023-06-19T04:32:53;9.98;;;5.85;;
72621;SDS011;60665;53.506;9.582;2023-06-19T04:35:19;8.38;;;5.88;;
72621;SDS011;60665;53.506;9.582;2023-06-19T04:37:44;9.77;;;6.13;;
72621;SDS011;60665;53.506;9.582;2023-06-19T04:40:10;9.40;;;6.03;;
72621;SDS011;60665;53.506;9.582;2023-06-19T04:42:36;9.23;;;6.55;;
72621;SDS011;60665;53.506;9.582;2023-06-19T04:45:03;12.23;;;6.40;;
72621;SDS011;60665;53.506;9.582;2023-06-19T04:47:32;8.55;;;5.95;;
72621;SDS011;60665;53.506;9.582;2023-06-19T04:49:57;9.52;;;5.95;;
72621;SDS011;60665;53.506;9.582;2023-06-19T04:52:23;9.68;;;6.53;;
72621;SDS011;60665;53.506;9.582;2023-06-19T04:54:48;9.82;;;6.45;;
72621;SDS011;60665;53.506;9.582;2023-06-19T04:57:13;9.95;;;5.82;;
72621;SDS011;60665;53.506;9.582;2023-06-19T04:59:39;9.35;;;6.22;;
72621;SDS011;60665;53.506;9.582;2023-06-19T05:02:04;12.32;;;7.55;;
72621;SDS011;60665;53.506;9.582;2023-06-19T05:04:32;9.35;;;6.03;;
72621;SDS011;60665;53.506;9.582;2023-06-19T05:06:58;9.57;;;6.32;;
72621;SDS011;60665;53.506;9.582;2023-06-19T05:09:24;9.15;;;5.95;;
72621;SDS011;60665;53.506;9.582;2023-06-19T05:11:49;10.60;;;6.20;;
72621;SDS011;60665;53.506;9.582;2023-06-19T05:14:14;7.95;;;5.60;;
72621;SDS011;60665;53.506;9.582;2023-06-19T05:16:40;10.00;;;5.65;;
72621;SDS011;60665;53.506;9.582;2023-06-19T05:19:05;8.65;;;6.18;;
72621;SDS011;60665;53.506;9.582;2023-06-19T05:21:31;11.95;;;6.55;;
72621;SDS011;60665;53.506;9.582;2023-06-19T05:23:56;8.20;;;5.75;;
72621;SDS011;60665;53.506;9.582;2023-06-19T05:26:22;9.43;;;6.15;;
72621;SDS011;60665;53.506;9.582;2023-06-19T05:28:47;9.40;;;6.70;;
72621;SDS011;60665;53.506;9.582;2023-06-19T05:31:13;9.23;;;6.25;;
72621;SDS011;60665;53.506;9.582;2023-06-19T05:33:40;9.20;;;6.15;;
72621;SDS011;60665;53.506;9.582;2023-06-19T05:36:05;8.23;;;6.13;;
72621;SDS011;60665;53.506;9.582;2023-06-19T05:38:31;11.82;;;6.68;;
72621;SDS011;60665;53.506;9.582;2023-06-19T05:40:57;9.35;;;6.53;;
72621;SDS011;60665;53.506;9.582;2023-06-19T05:43:22;9.30;;;6.47;;
72621;SDS011;60665;53.506;9.582;2023-06-19T05:45:49;10.73;;;6.60;;
72621;SDS011;60665;53.506;9.582;2023-06-19T05:48:15;12.60;;;6.32;;
72621;SDS011;60665;53.506;9.582;2023-06-19T05:50:40;12.23;;;6.60;;
72621;SDS011;60665;53.506;9.582;2023-06-19T05:53:06;10.38;;;6.88;;
72621;SDS011;60665;53.506;9.582;2023-06-19T05:55:31;10.80;;;6.10;;
72621;SDS011;60665;53.506;9.582;2023-06-19T05:57:57;9.52;;;6.57;;
72621;SDS011;60665;53.506;9.582;2023-06-19T06:00:22;9.52;;;6.63;;
72621;SDS011;60665;53.506;9.582;2023-06-19T06:02:48;9.63;;;6.68;;
72621;SDS011;60665;53.506;9.582;2023-06-19T06:07:42;9.15;;;6.20;;
72621;SDS011;60665;53.506;9.582;2023-06-19T06:10:08;10.40;;;6.80;;
72621;SDS011;60665;53.506;9.582;2023-06-19T06:12:34;8.73;;;6.93;;
72621;SDS011;60665;53.506;9.582;2023-06-19T06:15:00;10.75;;;6.65;;
72621;SDS011;60665;53.506;9.582;2023-06-19T06:17:26;8.35;;;6.25;;
72621;SDS011;60665;53.506;9.582;2023-06-19T06:19:52;8.88;;;6.30;;
72621;SDS011;60665;53.506;9.582;2023-06-19T06:22:17;8.93;;;6.10;;
72621;SDS011;60665;53.506;9.582;2023-06-19T06:24:43;9.60;;;6.68;;
72621;SDS011;60665;53.506;9.582;2023-06-19T06:27:09;9.30;;;6.60;;
72621;SDS011;60665;53.506;9.582;2023-06-19T06:29:34;8.98;;;6.50;;
72621;SDS011;60665;53.506;9.582;2023-06-19T06:32:05;8.93;;;6.30;;
72621;SDS011;60665;53.506;9.582;2023-06-19T06:34:31;9.07;;;6.10;;
72621;SDS011;60665;53.506;9.582;2023-06-19T06:36:58;9.00;;;6.72;;
72621;SDS011;60665;53.506;9.582;2023-06-19T06:39:23;9.20;;;6.63;;
72621;SDS011;60665;53.506;9.582;2023-06-19T06:41:49;9.07;;;6.50;;
72621;SDS011;60665;53.506;9.582;2023-06-19T06:44:14;8.65;;;6.10;;
72621;SDS011;60665;53.506;9.582;2023-06-19T06:46:40;9.32;;;6.78;;
72621;SDS011;60665;53.506;9.582;2023-06-19T06:49:05;9.00;;;6.43;;
72621;SDS011;60665;53.506;9.582;2023-06-19T06:51:31;10.00;;;6.80;;
72621;SDS011;60665;53.506;9.582;2023-06-19T06:53:56;9.00;;;5.97;;
72621;SDS011;60665;53.506;9.582;2023-06-19T06:56:21;10.23;;;6.88;;
72621;SDS011;60665;53.506;9.582;2023-06-19T06:58:47;9.35;;;6.20;;
72621;SDS011;60665;53.506;9.582;2023-06-19T07:01:13;9.90;;;6.18;;
72621;SDS011;60665;53.506;9.582;2023-06-19T07:03:38;10.15;;;6.35;;
72621;SDS011;60665;53.506;9.582;2023-06-19T07:06:04;9.45;;;6.22;;
72621;SDS011;60665;53.506;9.582;2023-06-19T07:08:30;10.75;;;6.88;;
72621;SDS011;60665;53.506;9.582;2023-06-19T07:10:55;10.15;;;6.75;;
72621;SDS011;60665;53.506;9.582;2023-06-19T07:13:21;9.50;;;6.85;;
72621;SDS011;60665;53.506;9.582;2023-06-19T07:15:46;12.32;;;6.90;;
72621;SDS011;60665;53.506;9.582;2023-06-19T07:18:11;11.52;;;7.55;;
72621;SDS011;60665;53.506;9.582;2023-06-19T07:20:37;10.63;;;7.15;;
72621;SDS011;60665;53.506;9.582;2023-06-19T07:23:02;11.93;;;7.57;;
72621;SDS011;60665;53.506;9.582;2023-06-19T07:25:27;11.25;;;6.68;;
72621;SDS011;60665;53.506;9.582;2023-06-19T07:27:53;10.32;;;7.30;;
72621;SDS011;60665;53.506;9.582;2023-06-19T07:30:18;12.00;;;8.05;;
72621;SDS011;60665;53.506;9.582;2023-06-19T07:32:44;10.77;;;7.40;;
72621;SDS011;60665;53.506;9.582;2023-06-19T07:35:10;13.30;;;7.85;;
72621;SDS011;60665;53.506;9.582;2023-06-19T07:37:36;13.95;;;7.50;;
72621;SDS011;60665;53.506;9.582;2023-06-19T07:40:02;10.35;;;7.07;;
72621;SDS011;60665;53.506;9.582;2023-06-19T07:42:28;9.48;;;6.72;;
72621;SDS011;60665;53.506;9.582;2023-06-19T07:44:53;11.88;;;8.15;;
72621;SDS011;60665;53.506;9.582;2023-06-19T07:47:18;10.80;;;8.15;;
72621;SDS011;60665;53.506;9.582;2023-06-19T07:49:45;10.10;;;7.53;;
72621;SDS011;60665;53.506;9.582;2023-06-19T07:52:11;12.73;;;7.97;;
72621;SDS011;60665;53.506;9.582;2023-06-19T07:54:36;12.50;;;7.75;;
72621;SDS011;60665;53.506;9.582;2023-06-19T07:57:15;9.55;;;6.55;;
72621;SDS011;60665;53.506;9.582;2023-06-19T07:59:40;9.68;;;6.95;;
72621;SDS011;60665;53.506;9.582;2023-06-19T08:02:05;11.35;;;7.50;;
72621;SDS011;60665;53.506;9.582;2023-06-19T08:04:31;12.40;;;7.15;;
72621;SDS011;60665;53.506;9.582;2023-06-19T08:06:56;10.02;;;6.78;;
72621;SDS011;60665;53.506;9.582;2023-06-19T08:09:21;11.65;;;7.25;;
72621;SDS011;60665;53.506;9.582;2023-06-19T08:11:47;8.52;;;6.60;;
72621;SDS011;60665;53.506;9.582;2023-06-19T08:14:12;12.32;;;6.80;;
72621;SDS011;60665;53.506;9.582;2023-06-19T08:16:38;11.55;;;6.68;;
72621;SDS011;60665;53.506;9.582;2023-06-19T08:19:03;9.27;;;6.35;;
72621;SDS011;60665;53.506;9.582;2023-06-19T08:21:29;10.88;;;6.82;;
72621;SDS011;60665;53.506;9.582;2023-06-19T08:23:54;8.75;;;6.38;;
72621;SDS011;60665;53.506;9.582;2023-06-19T08:26:19;11.55;;;6.85;;
72621;SDS011;60665;53.506;9.582;2023-06-19T08:28:45;9.48;;;6.53;;
72621;SDS011;60665;53.506;9.582;2023-06-19T08:31:10;9.02;;;6.65;;
72621;SDS011;60665;53.506;9.582;2023-06-19T08:33:36;8.93;;;6.85;;
72621;SDS011;60665;53.506;9.582;2023-06-19T08:36:01;10.07;;;6.38;;
72621;SDS011;60665;53.506;9.582;2023-06-19T08:38:27;9.57;;;7.03;;
72621;SDS011;60665;53.506;9.582;2023-06-19T08:40:53;8.80;;;5.75;;
72621;SDS011;60665;53.506;9.582;2023-06-19T08:43:18;10.45;;;6.43;;
72621;SDS011;60665;53.506;9.582;2023-06-19T08:45:43;9.73;;;6.50;;
72621;SDS011;60665;53.506;9.582;2023-06-19T08:48:20;9.40;;;5.80;;
72621;SDS011;60665;53.506;9.582;2023-06-19T08:50:45;9.00;;;5.45;;
72621;SDS011;60665;53.506;9.582;2023-06-19T08:53:11;8.07;;;5.25;;
72621;SDS011;60665;53.506;9.582;2023-06-19T08:55:37;8.85;;;5.70;;
72621;SDS011;60665;53.506;9.582;2023-06-19T08:58:02;8.02;;;5.00;;
72621;SDS011;60665;53.506;9.582;2023-06-19T09:00:28;7.82;;;5.35;;
72621;SDS011;60665;53.506;9.582;2023-06-19T09:03:01;9.02;;;5.35;;
72621;SDS011;60665;53.506;9.582;2023-06-19T09:05:27;6.63;;;4.93;;
72621;SDS011;60665;53.506;9.582;2023-06-19T09:07:54;8.00;;;5.63;;
72621;SDS011;60665;53.506;9.582;2023-06-19T09:10:21;8.05;;;5.43;;
72621;SDS011;60665;53.506;9.582;2023-06-19T09:15:28;7.07;;;4.80;;
72621;SDS011;60665;53.506;9.582;2023-06-19T09:18:10;9.38;;;5.47;;
72621;SDS011;60665;53.506;9.582;2023-06-19T09:20:40;7.55;;;5.55;;
72621;SDS011;60665;53.506;9.582;2023-06-19T09:23:10;8.45;;;5.75;;
72621;SDS011;60665;53.506;9.582;2023-06-19T09:25:52;9.75;;;5.70;;
72621;SDS011;60665;53.506;9.582;2023-06-19T09:28:29;8.10;;;5.68;;
72621;SDS011;60665;53.506;9.582;2023-06-19T09:31:01;8.45;;;6.05;;
72621;SDS011;60665;53.506;9.582;2023-06-19T09:33:31;8.27;;;5.90;;
72621;SDS011;60665;53.506;9.582;2023-06-19T09:35:58;9.85;;;5.40;;
72621;SDS011;60665;53.506;9.582;2023-06-19T09:38:25;10.43;;;5.22;;
72621;SDS011;60665;53.506;9.582;2023-06-19T09:40:52;10.13;;;5.20;;
72621;SDS011;60665;53.506;9.582;2023-06-19T09:43:34;9.45;;;5.97;;
72621;SDS011;60665;53.506;9.582;2023-06-19T09:48:35;8.00;;;5.55;;
72621;SDS011;60665;53.506;9.582;2023-06-19T09:51:10;6.97;;;5.22;;
72621;SDS011;60665;53.506;9.582;2023-06-19T09:53:49;7.32;;;4.70;;
72621;SDS011;60665;53.506;9.582;2023-06-19T09:56:15;8.18;;;5.30;;
72621;SDS011;60665;53.506;9.582;2023-06-19T09:58:44;7.90;;;5.43;;
72621;SDS011;60665;53.506;9.582;2023-06-19T10:01:09;7.05;;;4.90;;
72621;SDS011;60665;53.506;9.582;2023-06-19T10:03:35;8.85;;;5.57;;
72621;SDS011;60665;53.506;9.582;2023-06-19T10:06:02;8.27;;;5.60;;
72621;SDS011;60665;53.506;9.582;2023-06-19T10:08:30;7.95;;;5.00;;
72621;SDS011;60665;53.506;9.582;2023-06-19T10:10:56;8.73;;;5.15;;
72621;SDS011;60665;53.506;9.582;2023-06-19T10:13:30;8.52;;;4.95;;
72621;SDS011;60665;53.506;9.582;2023-06-19T10:16:00;8.80;;;5.07;;
72621;SDS011;60665;53.506;9.582;2023-06-19T10:18:25;7.30;;;4.45;;
72621;SDS011;60665;53.506;9.582;2023-06-19T10:20:51;8.00;;;4.72;;
72621;SDS011;60665;53.506;9.582;2023-06-19T10:23:19;6.80;;;4.55;;
72621;SDS011;60665;53.506;9.582;2023-06-19T10:25:57;7.00;;;4.47;;
72621;SDS011;60665;53.506;9.582;2023-06-19T10:28:27;7.15;;;4.80;;
72621;SDS011;60665;53.506;9.582;2023-06-19T10:33:29;7.25;;;5.20;;
72621;SDS011;60665;53.506;9.582;2023-06-19T10:36:00;7.88;;;4.53;;
72621;SDS011;60665;53.506;9.582;2023-06-19T10:38:26;8.00;;;4.97;;
72621;SDS011;60665;53.506;9.582;2023-06-19T10:40:51;6.65;;;5.05;;
72621;SDS011;60665;53.506;9.582;2023-06-19T10:43:20;6.82;;;5.22;;
72621;SDS011;60665;53.506;9.582;2023-06-19T10:45:53;7.75;;;5.05;;
72621;SDS011;60665;53.506;9.582;2023-06-19T10:48:22;10.18;;;5.07;;
72621;SDS011;60665;53.506;9.582;2023-06-19T10:50:48;7.30;;;4.93;;
72621;SDS011;60665;53.506;9.582;2023-06-19T10:53:29;7.15;;;5.20;;
72621;SDS011;60665;53.506;9.582;2023-06-19T10:55:59;8.38;;;5.30;;
72621;SDS011;60665;53.506;9.582;2023-06-19T10:58:29;8.70;;;5.00;;
72621;SDS011;60665;53.506;9.582;2023-06-19T11:00:55;8.75;;;4.78;;
72621;SDS011;60665;53.506;9.582;2023-06-19T11:03:21;6.65;;;4.88;;
72621;SDS011;60665;53.506;9.582;2023-06-19T11:05:47;7.88;;;4.63;;
72621;SDS011;60665;53.506;9.582;2023-06-19T11:08:19;7.30;;;4.47;;
72621;SDS011;60665;53.506;9.582;2023-06-19T11:10:46;6.30;;;4.65;;
72621;SDS011;60665;53.506;9.582;2023-06-19T11:13:15;5.95;;;4.00;;
72621;SDS011;60665;53.506;9.582;2023-06-19T11:15:41;7.18;;;4.45;;
72621;SDS011;60665;53.506;9.582;2023-06-19T11:18:07;7.18;;;4.65;;
72621;SDS011;60665;53.506;9.582;2023-06-19T11:23:24;6.10;;;4.60;;
72621;SDS011;60665;53.506;9.582;2023-06-19T11:25:54;7.30;;;4.47;;
72621;SDS011;60665;53.506;9.582;2023-06-19T11:28:22;8.20;;;4.55;;
72621;SDS011;60665;53.506;9.582;2023-06-19T11:30:48;6.30;;;4.03;;
72621;SDS011;60665;53.506;9.582;2023-06-19T11:33:22;7.70;;;4.20;;
72621;SDS011;60665;53.506;9.582;2023-06-19T11:35:50;7.68;;;4.40;;
72621;SDS011;60665;53.506;9.582;2023-06-19T11:38:18;7.40;;;4.18;;
72621;SDS011;60665;53.506;9.582;2023-06-19T11:40:43;7.05;;;4.50;;
72621;SDS011;60665;53.506;9.582;2023-06-19T11:43:10;7.60;;;4.03;;
72621;SDS011;60665;53.506;9.582;2023-06-19T11:45:47;7.60;;;4.70;;
72621;SDS011;60665;53.506;9.582;2023-06-19T11:48:12;6.10;;;4.15;;
72621;SDS011;60665;53.506;9.582;2023-06-19T11:50:38;8.80;;;5.22;;
72621;SDS011;60665;53.506;9.582;2023-06-19T11:53:03;7.68;;;4.72;;
72621;SDS011;60665;53.506;9.582;2023-06-19T11:55:29;8.18;;;4.85;;
72621;SDS011;60665;53.506;9.582;2023-06-19T11:57:54;6.78;;;4.45;;
72621;SDS011;60665;53.506;9.582;2023-06-19T12:00:20;8.23;;;4.93;;
72621;SDS011;60665;53.506;9.582;2023-06-19T12:02:45;10.35;;;5.15;;
72621;SDS011;60665;53.506;9.582;2023-06-19T12:05:14;7.63;;;4.22;;
72621;SDS011;60665;53.506;9.582;2023-06-19T12:07:39;6.60;;;4.20;;
72621;SDS011;60665;53.506;9.582;2023-06-19T12:10:05;6.40;;;4.97;;
72621;SDS011;60665;53.506;9.582;2023-06-19T12:12:35;6.45;;;4.38;;
72621;SDS011;60665;53.506;9.582;2023-06-19T12:15:01;7.38;;;4.50;;
72621;SDS011;60665;53.506;9.582;2023-06-19T12:17:28;6.65;;;3.60;;
72621;SDS011;60665;53.506;9.582;2023-06-19T12:19:54;7.82;;;3.65;;
72621;SDS011;60665;53.506;9.582;2023-06-19T12:22:20;12.27;;;3.78;;
72621;SDS011;60665;53.506;9.582;2023-06-19T12:24:45;7.05;;;3.65;;
72621;SDS011;60665;53.506;9.582;2023-06-19T12:27:11;6.28;;;3.22;;
72621;SDS011;60665;53.506;9.582;2023-06-19T12:29:36;7.40;;;3.75;;
72621;SDS011;60665;53.506;9.582;2023-06-19T12:32:02;6.47;;;3.78;;
72621;SDS011;60665;53.506;9.582;2023-06-19T12:34:28;8.57;;;4.20;;
72621;SDS011;60665;53.506;9.582;2023-06-19T12:36:53;5.88;;;3.58;;
72621;SDS011;60665;53.506;9.582;2023-06-19T12:39:19;7.25;;;3.80;;
72621;SDS011;60665;53.506;9.582;2023-06-19T12:41:45;6.78;;;3.83;;
72621;SDS011;60665;53.506;9.582;2023-06-19T12:44:10;8.07;;;3.53;;
72621;SDS011;60665;53.506;9.582;2023-06-19T12:46:36;11.35;;;4.15;;
72621;SDS011;60665;53.506;9.582;2023-06-19T12:49:01;7.60;;;4.15;;
72621;SDS011;60665;53.506;9.582;2023-06-19T12:51:27;6.75;;;3.45;;
72621;SDS011;60665;53.506;9.582;2023-06-19T12:53:52;5.40;;;3.63;;
72621;SDS011;60665;53.506;9.582;2023-06-19T12:56:18;8.50;;;3.78;;
72621;SDS011;60665;53.506;9.582;2023-06-19T12:58:43;8.32;;;3.42;;
72621;SDS011;60665;53.506;9.582;2023-06-19T13:01:09;7.95;;;3.53;;
72621;SDS011;60665;53.506;9.582;2023-06-19T13:03:34;6.78;;;3.25;;
72621;SDS011;60665;53.506;9.582;2023-06-19T13:05:59;8.15;;;3.38;;
72621;SDS011;60665;53.506;9.582;2023-06-19T13:08:25;7.25;;;3.47;;
72621;SDS011;60665;53.506;9.582;2023-06-19T13:10:50;6.40;;;3.00;;
72621;SDS011;60665;53.506;9.582;2023-06-19T13:13:15;6.43;;;3.15;;
72621;SDS011;60665;53.506;9.582;2023-06-19T13:15:41;4.88;;;2.83;;
72621;SDS011;60665;53.506;9.582;2023-06-19T13:18:06;4.85;;;3.35;;
72621;SDS011;60665;53.506;9.582;2023-06-19T13:20:32;5.50;;;3.50;;
72621;SDS011;60665;53.506;9.582;2023-06-19T13:22:57;5.50;;;3.67;;
72621;SDS011;60665;53.506;9.582;2023-06-19T13:25:22;5.85;;;3.40;;
72621;SDS011;60665;53.506;9.582;2023-06-19T13:27:48;5.30;;;3.42;;
72621;SDS011;60665;53.506;9.582;2023-06-19T13:30:13;5.53;;;3.45;;
72621;SDS011;60665;53.506;9.582;2023-06-19T13:32:39;5.53;;;3.45;;
72621;SDS011;60665;53.506;9.582;2023-06-19T13:35:07;6.28;;;4.05;;
72621;SDS011;60665;53.506;9.582;2023-06-19T13:37:34;8.57;;;3.67;;
72621;SDS011;60665;53.506;9.582;2023-06-19T13:40:00;12.85;;;4.50;;
72621;SDS011;60665;53.506;9.582;2023-06-19T13:42:26;6.68;;;4.03;;
72621;SDS011;60665;53.506;9.582;2023-06-19T13:44:52;7.40;;;3.83;;
72621;SDS011;60665;53.506;9.582;2023-06-19T13:47:17;11.20;;;3.72;;
72621;SDS011;60665;53.506;9.582;2023-06-19T13:49:43;7.97;;;3.40;;
72621;SDS011;60665;53.506;9.582;2023-06-19T13:52:09;6.35;;;3.70;;
72621;SDS011;60665;53.506;9.582;2023-06-19T13:54:35;9.43;;;4.32;;
72621;SDS011;60665;53.506;9.582;2023-06-19T13:57:01;5.43;;;4.07;;
72621;SDS011;60665;53.506;9.582;2023-06-19T13:59:26;7.72;;;3.70;;
72621;SDS011;60665;53.506;9.582;2023-06-19T14:01:52;8.30;;;4.13;;
72621;SDS011;60665;53.506;9.582;2023-06-19T14:04:17;6.38;;;3.97;;
72621;SDS011;60665;53.506;9.582;2023-06-19T14:06:42;5.57;;;3.83;;
72621;SDS011;60665;53.506;9.582;2023-06-19T14:09:08;6.75;;;3.42;;
72621;SDS011;60665;53.506;9.582;2023-06-19T14:11:34;5.90;;;3.80;;
72621;SDS011;60665;53.506;9.582;2023-06-19T14:14:00;8.10;;;3.70;;
72621;SDS011;60665;53.506;9.582;2023-06-19T14:16:25;5.18;;;3.60;;
72621;SDS011;60665;53.506;9.582;2023-06-19T14:18:51;6.30;;;2.92;;
72621;SDS011;60665;53.506;9.582;2023-06-19T14:21:16;6.65;;;3.20;;
72621;SDS011;60665;53.506;9.582;2023-06-19T14:23:41;7.45;;;3.38;;
72621;SDS011;60665;53.506;9.582;2023-06-19T14:28:37;5.30;;;2.53;;
72621;SDS011;60665;53.506;9.582;2023-06-19T14:31:04;5.40;;;2.33;;
72621;SDS011;60665;53.506;9.582;2023-06-19T14:33:29;4.38;;;2.58;;
72621;SDS011;60665;53.506;9.582;2023-06-19T14:35:56;4.70;;;2.35;;
72621;SDS011;60665;53.506;9.582;2023-06-19T14:38:21;4.38;;;2.45;;
72621;SDS011;60665;53.506;9.582;2023-06-19T14:40:47;4.35;;;2.45;;
72621;SDS011;60665;53.506;9.582;2023-06-19T14:45:39;3.97;;;2.20;;
72621;SDS011;60665;53.506;9.582;2023-06-19T14:48:06;5.22;;;2.45;;
72621;SDS011;60665;53.506;9.582;2023-06-19T14:50:31;4.57;;;2.75;;
72621;SDS011;60665;53.506;9.582;2023-06-19T14:52:58;4.75;;;2.88;;
72621;SDS011;60665;53.506;9.582;2023-06-19T14:55:23;5.03;;;3.30;;
72621;SDS011;60665;53.506;9.582;2023-06-19T14:57:49;5.50;;;3.05;;
72621;SDS011;60665;53.506;9.582;2023-06-19T15:00:14;4.78;;;3.53;;